Time;durP1;ratioP1;P1;durP2;ratioP2;P2;SDS_P1;SDS_P2;PMS_P1;PMS_P2;Temp;Humidity;BMP_temperature;BMP_pressure;BME280_temperature;BME280_humidity;BME280_pressure;Samples;Min_cycle;Max_cycle;Signal;HPM_P1;HPM_P2
2023/06/12 00:00:11;;;;;;;5.93;4.80;;;14.00;99.90;;;;;;5073975;28;20448;-61
2023/06/12 00:02:39;;;;;;;6.32;3.97;;;14.00;99.90;;;;;;5073456;28;20512;-62
2023/06/12 00:05:08;;;;;;;5.32;4.00;;;14.00;99.90;;;;;;5074388;28;20071;-62
2023/06/12 00:07:35;;;;;;;5.50;4.15;;;14.00;99.90;;;;;;5074480;28;20054;-61
2023/06/12 00:10:02;;;;;;;5.07;4.00;;;14.00;99.90;;;;;;5073974;28;20392;-63
2023/06/12 00:12:30;;;;;;;5.35;4.10;;;13.90;99.90;;;;;;5073672;28;20135;-62
2023/06/12 00:14:57;;;;;;;4.75;4.03;;;13.90;99.90;;;;;;5074143;28;20041;-61
2023/06/12 00:17:23;;;;;;;5.30;3.72;;;13.80;99.90;;;;;;5073345;28;20165;-61
2023/06/12 00:19:50;;;;;;;5.05;3.75;;;13.80;99.90;;;;;;5073776;28;20048;-61
2023/06/12 00:22:17;;;;;;;6.10;4.22;;;13.80;99.90;;;;;;5073679;28;20501;-61
2023/06/12 00:24:44;;;;;;;5.65;4.43;;;13.80;99.90;;;;;;5078639;28;20043;-61
2023/06/12 00:27:11;;;;;;;4.82;4.32;;;13.80;99.90;;;;;;5079267;28;20048;-61
2023/06/12 00:29:38;;;;;;;;;;;13.70;99.90;;;;;;5072844;28;20436;-62
2023/06/12 00:32:05;;;;;;;8.80;5.13;;;13.70;99.90;;;;;;5073744;28;20288;-61
2023/06/12 00:34:32;;;;;;;11.48;4.45;;;13.70;99.90;;;;;;5065356;28;20059;-61
2023/06/12 00:36:58;;;;;;;5.60;4.60;;;13.60;99.90;;;;;;5087987;28;20460;-61
2023/06/12 00:39:25;;;;;;;5.63;4.50;;;13.60;99.90;;;;;;5072996;28;20051;-62
2023/06/12 00:41:53;;;;;;;4.45;3.97;;;13.60;99.90;;;;;;5055301;28;20489;-62
2023/06/12 00:44:20;;;;;;;7.32;4.40;;;13.60;99.90;;;;;;5079031;28;20052;-62
2023/06/12 00:46:47;;;;;;;6.38;4.63;;;13.50;99.90;;;;;;5075322;28;20042;-62
2023/06/12 00:49:14;;;;;;;7.15;4.57;;;13.40;99.90;;;;;;5074952;28;20503;-62
2023/06/12 00:51:42;;;;;;;7.65;4.63;;;13.40;99.90;;;;;;5092053;28;20067;-61
2023/06/12 00:54:09;;;;;;;8.77;3.97;;;13.30;99.90;;;;;;5064250;28;20381;-62
2023/06/12 00:56:36;;;;;;;6.15;4.70;;;13.30;99.90;;;;;;5055170;28;20045;-61
2023/06/12 00:59:03;;;;;;;7.18;4.10;;;13.30;99.90;;;;;;5054510;28;20040;-61
2023/06/12 01:01:30;;;;;;;5.88;4.40;;;13.30;99.90;;;;;;5063503;28;20040;-61
2023/06/12 01:03:57;;;;;;;7.15;4.75;;;13.20;99.90;;;;;;5079156;28;20374;-61
2023/06/12 01:06:54;;;;;;;5.72;4.45;;;13.20;99.90;;;;;;5054768;28;20044;-62
2023/06/12 01:09:35;;;;;;;5.80;4.43;;;13.10;99.90;;;;;;5058031;28;20048;-61
2023/06/12 01:12:04;;;;;;;7.88;5.38;;;13.10;99.90;;;;;;5073446;28;20082;-61
2023/06/12 01:14:31;;;;;;;6.75;4.78;;;13.10;99.90;;;;;;5082408;28;20050;-61
2023/06/12 01:17:01;;;;;;;6.40;4.72;;;13.10;99.90;;;;;;5063023;28;20051;-62
2023/06/12 01:19:30;;;;;;;5.82;4.25;;;13.10;99.90;;;;;;5079042;28;20393;-61
2023/06/12 01:22:04;;;;;;;5.43;4.63;;;13.10;99.90;;;;;;5060000;28;20040;-61
2023/06/12 01:24:51;;;;;;;5.60;4.78;;;13.10;99.90;;;;;;5064936;28;20037;-62
2023/06/12 01:27:43;;;;;;;6.53;4.57;;;13.10;99.90;;;;;;5074215;28;20129;-62
2023/06/12 01:30:29;;;;;;;7.03;4.78;;;13.00;99.90;;;;;;5077926;28;20044;-61
2023/06/12 01:32:59;;;;;;;6.40;4.97;;;13.00;99.90;;;;;;5054340;28;20055;-63
2023/06/12 01:35:30;;;;;;;5.47;4.55;;;13.00;99.90;;;;;;5061814;28;20044;-62
2023/06/12 01:38:14;;;;;;;6.50;5.00;;;12.80;99.90;;;;;;5062850;28;20051;-61
2023/06/12 01:40:44;;;;;;;6.38;4.93;;;12.70;99.90;;;;;;5054662;28;20130;-62
2023/06/12 01:43:11;;;;;;;7.82;5.68;;;12.60;99.90;;;;;;5072025;28;20041;-61
2023/06/12 01:45:38;;;;;;;6.00;4.75;;;12.60;99.90;;;;;;5053889;28;20048;-61
2023/06/12 01:48:05;;;;;;;5.65;4.60;;;12.70;99.90;;;;;;5055162;28;20037;-61
2023/06/12 01:50:33;;;;;;;7.03;4.75;;;12.70;99.90;;;;;;5053755;28;20054;-61
2023/06/12 01:53:01;;;;;;;6.85;5.00;;;12.70;99.90;;;;;;5052952;28;20037;-62
2023/06/12 01:55:29;;;;;;;5.80;4.43;;;12.70;99.90;;;;;;5083083;28;20100;-62
2023/06/12 01:57:57;;;;;;;6.07;4.75;;;12.70;99.90;;;;;;5053706;28;20037;-61
2023/06/12 02:00:43;;;;;;;7.72;4.90;;;12.50;99.90;;;;;;5064533;28;20044;-62
2023/06/12 02:03:12;;;;;;;6.28;5.18;;;12.40;99.90;;;;;;5061812;28;20045;-62
2023/06/12 02:05:39;;;;;;;9.73;5.22;;;12.30;99.90;;;;;;5053717;28;20091;-62
2023/06/12 02:08:07;;;;;;;6.45;5.13;;;12.30;99.90;;;;;;5062115;28;20436;-62
2023/06/12 02:10:34;;;;;;;8.05;5.55;;;12.20;99.90;;;;;;5071352;28;20052;-61
2023/06/12 02:13:02;;;;;;;6.22;5.15;;;12.20;99.90;;;;;;5056022;28;20401;-61
2023/06/12 02:15:29;;;;;;;5.93;5.00;;;12.20;99.90;;;;;;5061937;28;20044;-62
2023/06/12 02:17:56;;;;;;;8.20;5.18;;;12.20;99.90;;;;;;5071724;28;20037;-60
2023/06/12 02:20:23;;;;;;;5.95;4.63;;;12.20;99.90;;;;;;5059916;28;20087;-62
2023/06/12 02:22:49;;;;;;;8.07;5.70;;;12.20;99.90;;;;;;5073559;28;20085;-62
2023/06/12 02:25:17;;;;;;;;;;;12.20;99.90;;;;;;5059042;28;20398;-61
2023/06/12 02:27:44;;;;;;;7.20;5.28;;;12.20;99.90;;;;;;5055416;28;19924;-60
2023/06/12 02:30:11;;;;;;;7.80;5.28;;;12.10;99.90;;;;;;5063770;28;20094;-61
2023/06/12 02:32:39;;;;;;;7.70;4.78;;;12.20;99.90;;;;;;5079574;28;20044;-62
2023/06/12 02:35:08;;;;;;;9.27;5.10;;;12.20;99.90;;;;;;5059470;28;20045;-62
2023/06/12 02:37:36;;;;;;;6.53;4.63;;;12.20;99.90;;;;;;5055772;28;20045;-62
2023/06/12 02:40:04;;;;;;;8.40;5.68;;;12.20;99.90;;;;;;5057777;28;20388;-62
2023/06/12 02:42:32;;;;;;;7.28;4.80;;;12.20;99.90;;;;;;5072034;28;20052;-62
2023/06/12 02:44:59;;;;;;;7.50;5.47;;;12.10;99.90;;;;;;5057662;28;20150;-61
2023/06/12 02:47:26;;;;;;;6.97;5.03;;;12.20;99.90;;;;;;5063550;28;20051;-62
2023/06/12 02:49:54;;;;;;;7.85;5.82;;;12.20;99.90;;;;;;5071221;28;20044;-61
2023/06/12 02:52:24;;;;;;;5.82;4.68;;;12.20;99.90;;;;;;5052561;28;20458;-62
2023/06/12 02:54:51;;;;;;;5.28;4.68;;;12.20;99.90;;;;;;5058662;28;20508;-61
2023/06/12 02:57:18;;;;;;;5.95;4.97;;;12.20;99.90;;;;;;5055938;28;20093;-61
2023/06/12 02:59:45;;;;;;;6.38;5.38;;;12.20;99.90;;;;;;5069488;28;20044;-61
2023/06/12 03:02:20;;;;;;;6.70;5.32;;;12.10;99.90;;;;;;5053153;28;20521;-62
2023/06/12 03:04:49;;;;;;;6.72;4.70;;;12.20;99.90;;;;;;5081013;28;20074;-62
2023/06/12 03:07:20;;;;;;;6.93;4.93;;;12.20;99.90;;;;;;5053226;28;20041;-61
2023/06/12 03:09:47;;;;;;;7.43;4.97;;;12.20;99.90;;;;;;5052462;28;20044;-62
2023/06/12 03:12:14;;;;;;;6.60;4.90;;;12.20;99.90;;;;;;5053045;28;20509;-62
2023/06/12 03:14:42;;;;;;;7.10;4.85;;;12.20;99.90;;;;;;5067559;28;20044;-63
2023/06/12 03:17:09;;;;;;;7.38;5.30;;;12.10;99.90;;;;;;5067486;28;20123;-62
2023/06/12 03:19:37;;;;;;;;;;;12.00;99.90;;;;;;5071701;28;20037;-62
2023/06/12 03:22:04;;;;;;;6.95;5.35;;;11.90;99.90;;;;;;5055531;28;19929;-61
2023/06/12 03:24:31;;;;;;;9.07;5.57;;;11.90;99.90;;;;;;5073831;28;20050;-62
2023/06/12 03:26:58;;;;;;;10.20;6.30;;;11.90;99.90;;;;;;5056049;28;20050;-61
2023/06/12 03:29:27;;;;;;;8.23;5.90;;;11.80;99.90;;;;;;5052693;28;20070;-62
2023/06/12 03:31:55;;;;;;;8.65;5.53;;;11.70;99.90;;;;;;5055145;28;20449;-61
2023/06/12 03:34:22;;;;;;;8.98;5.68;;;11.60;99.90;;;;;;5057092;28;20113;-61
2023/06/12 03:36:49;;;;;;;7.30;5.95;;;11.60;99.90;;;;;;5076956;28;20060;-61
2023/06/12 03:39:22;;;;;;;7.22;5.20;;;11.60;99.90;;;;;;5052738;28;20105;-61
2023/06/12 03:41:56;;;;;;;8.73;6.43;;;11.60;99.90;;;;;;5069913;28;20041;-61
2023/06/12 03:44:31;;;;;;;8.27;5.75;;;11.60;99.90;;;;;;5053004;28;20464;-62
2023/06/12 03:46:58;;;;;;;7.15;5.32;;;11.70;99.90;;;;;;5053210;28;20118;-61
2023/06/12 03:49:26;;;;;;;8.43;6.03;;;11.80;99.90;;;;;;5069487;28;20076;-61
2023/06/12 03:51:53;;;;;;;8.68;5.65;;;11.90;99.90;;;;;;5055394;28;20105;-62
2023/06/12 03:54:20;;;;;;;8.32;6.00;;;11.90;99.90;;;;;;5056182;28;20464;-62
2023/06/12 03:56:48;;;;;;;8.18;6.07;;;11.90;99.90;;;;;;5064836;28;20044;-62
2023/06/12 03:59:18;;;;;;;9.73;6.22;;;11.90;99.90;;;;;;5062914;28;20527;-61
2023/06/12 04:01:45;;;;;;;8.25;5.93;;;11.90;99.90;;;;;;5070999;28;20136;-62
2023/06/12 04:04:12;;;;;;;8.35;6.18;;;11.90;99.90;;;;;;5074393;28;20060;-62
2023/06/12 04:06:40;;;;;;;8.75;5.72;;;11.90;99.90;;;;;;5055359;28;20044;-62
2023/06/12 04:09:09;;;;;;;8.60;6.40;;;11.90;99.90;;;;;;5061242;28;20046;-62
2023/06/12 04:11:38;;;;;;;8.82;6.00;;;12.00;99.90;;;;;;5084507;28;20040;-62
2023/06/12 04:14:06;;;;;;;7.82;6.13;;;12.00;99.90;;;;;;5080378;28;20029;-62
2023/06/12 04:16:34;;;;;;;9.00;6.10;;;12.00;99.90;;;;;;5074002;28;20527;-62
2023/06/12 04:19:04;;;;;;;8.60;6.07;;;11.90;99.90;;;;;;5073962;28;20442;-62
2023/06/12 04:21:35;;;;;;;13.65;6.22;;;12.00;99.90;;;;;;5070862;28;20106;-62
2023/06/12 04:24:03;;;;;;;8.65;5.75;;;12.00;99.90;;;;;;5085499;28;20086;-63
2023/06/12 04:26:31;;;;;;;11.20;5.30;;;12.00;99.90;;;;;;5058510;28;20075;-62
2023/06/12 04:29:02;;;;;;;9.13;5.45;;;12.10;99.90;;;;;;5073510;28;20124;-61
2023/06/12 04:31:30;;;;;;;7.75;5.25;;;12.10;99.90;;;;;;5074196;28;20086;-61
2023/06/12 04:33:58;;;;;;;8.15;5.13;;;12.20;99.90;;;;;;5066362;28;20047;-61
2023/06/12 04:36:25;;;;;;;7.30;5.20;;;12.30;99.90;;;;;;5061147;28;20085;-62
2023/06/12 04:38:52;;;;;;;;;;;12.40;99.90;;;;;;5062675;28;20046;-62
2023/06/12 04:41:24;;;;;;;11.57;6.63;;;12.40;99.90;;;;;;5087083;28;19920;-61
2023/06/12 04:43:58;;;;;;;9.48;6.82;;;12.50;99.90;;;;;;5070248;28;20117;-63
2023/06/12 04:46:28;;;;;;;9.98;7.10;;;12.60;99.90;;;;;;5058576;28;20044;-63
2023/06/12 04:48:55;;;;;;;8.52;6.65;;;12.60;99.90;;;;;;5063469;28;20135;-62
2023/06/12 04:51:25;;;;;;;13.93;7.82;;;12.70;99.90;;;;;;5055665;28;20086;-62
2023/06/12 04:53:53;;;;;;;13.32;8.25;;;12.70;99.90;;;;;;5070947;28;20036;-63
2023/06/12 04:56:21;;;;;;;14.98;8.15;;;12.80;99.90;;;;;;5054965;28;20551;-60
2023/06/12 04:58:50;;;;;;;9.88;7.65;;;12.90;99.90;;;;;;5062619;28;20082;-62
2023/06/12 05:01:19;;;;;;;11.48;8.35;;;12.90;99.90;;;;;;5045394;28;20546;-61
2023/06/12 05:03:47;;;;;;;11.68;7.72;;;13.00;99.90;;;;;;5037302;28;20596;-61
2023/06/12 05:06:14;;;;;;;9.50;7.28;;;13.10;99.90;;;;;;5063596;28;20075;-62
2023/06/12 05:08:41;;;;;;;11.23;7.47;;;13.20;99.90;;;;;;5072723;28;20033;-62
2023/06/12 05:11:08;;;;;;;10.30;7.30;;;13.20;99.90;;;;;;5065916;28;20067;-62
2023/06/12 05:13:35;;;;;;;9.55;7.22;;;13.30;99.90;;;;;;5057040;28;20053;-62
2023/06/12 05:16:03;;;;;;;11.98;8.35;;;13.30;99.90;;;;;;5057947;28;20052;-62
2023/06/12 05:18:30;;;;;;;10.40;7.65;;;13.40;99.90;;;;;;5077587;28;20124;-61
2023/06/12 05:20:59;;;;;;;10.80;8.30;;;13.40;99.90;;;;;;5059535;28;20048;-61
2023/06/12 05:23:26;;;;;;;11.52;8.02;;;13.40;99.90;;;;;;5065738;28;20051;-62
2023/06/12 05:25:53;;;;;;;11.15;8.32;;;13.50;99.90;;;;;;5056414;28;20044;-63
2023/06/12 05:28:20;;;;;;;11.77;7.45;;;13.50;99.90;;;;;;5054443;28;20098;-62
2023/06/12 05:30:47;;;;;;;11.30;7.40;;;13.70;99.90;;;;;;5059901;28;20040;-62
2023/06/12 05:33:16;;;;;;;8.73;6.90;;;14.00;99.90;;;;;;5054118;28;20397;-60
2023/06/12 05:35:44;;;;;;;8.75;7.18;;;14.10;99.90;;;;;;5070061;28;20465;-62
2023/06/12 05:38:11;;;;;;;10.02;7.20;;;14.10;99.90;;;;;;5057869;28;20040;-62
2023/06/12 05:40:38;;;;;;;9.68;7.15;;;14.00;99.90;;;;;;5068684;28;20507;-62
2023/06/12 05:43:06;;;;;;;;;;;14.00;99.90;;;;;;5066215;28;20410;-62
2023/06/12 05:45:33;;;;;;;14.25;7.18;;;14.00;99.90;;;;;;5057833;28;20007;-63
2023/06/12 05:48:03;;;;;;;9.65;6.82;;;14.10;99.90;;;;;;5064084;28;20036;-63
2023/06/12 05:50:30;;;;;;;13.60;7.22;;;14.10;99.90;;;;;;5060523;28;20508;-62
2023/06/12 05:52:56;;;;;;;11.15;6.80;;;14.20;99.90;;;;;;5070437;28;20079;-62
2023/06/12 05:55:23;;;;;;;9.63;7.15;;;14.20;99.90;;;;;;5053445;28;20126;-62
2023/06/12 05:57:51;;;;;;;11.07;7.13;;;14.20;99.90;;;;;;5061625;28;20446;-63
2023/06/12 06:00:21;;;;;;;10.00;7.30;;;14.30;99.90;;;;;;5058169;28;20490;-62
2023/06/12 06:02:53;;;;;;;9.85;7.05;;;14.20;99.90;;;;;;5053922;28;20037;-61
2023/06/12 06:05:30;;;;;;;8.85;6.78;;;14.30;99.90;;;;;;5054227;28;20044;-62
2023/06/12 06:08:01;;;;;;;8.95;6.47;;;14.40;99.90;;;;;;5062209;28;20109;-62
2023/06/12 06:10:29;;;;;;;;;;;14.50;99.90;;;;;;5068033;28;20048;-62
2023/06/12 06:12:57;;;;;;;8.48;6.28;;;14.60;99.90;;;;;;5071656;28;20368;-62
2023/06/12 06:15:23;;;;;;;;;;;14.70;99.90;;;;;;5065896;28;20490;-62
2023/06/12 06:17:51;;;;;;;7.78;6.20;;;14.80;99.90;;;;;;5053687;28;20288;-62
2023/06/12 06:20:20;;;;;;;9.95;6.22;;;15.00;99.90;;;;;;5064576;28;20119;-62
2023/06/12 06:22:47;;;;;;;9.23;6.30;;;15.00;99.90;;;;;;5073002;28;20040;-62
2023/06/12 06:25:15;;;;;;;10.50;7.15;;;15.00;99.90;;;;;;5053558;28;20040;-62
2023/06/12 06:27:43;;;;;;;9.07;6.25;;;15.20;99.90;;;;;;5061545;28;20040;-62
2023/06/12 06:30:10;;;;;;;7.80;5.82;;;15.30;99.90;;;;;;5053400;28;20036;-61
2023/06/12 06:32:37;;;;;;;;;;;15.30;99.90;;;;;;5077967;28;20050;-62
2023/06/12 06:35:04;;;;;;;8.27;6.30;;;15.40;99.90;;;;;;5071650;28;20270;-62
2023/06/12 06:37:31;;;;;;;9.98;6.78;;;15.60;99.90;;;;;;5065608;28;20049;-62
2023/06/12 06:39:58;;;;;;;10.90;5.80;;;15.70;99.90;;;;;;5060415;28;20131;-62
2023/06/12 06:42:27;;;;;;;10.55;5.80;;;15.90;99.90;;;;;;5071578;28;20040;-62
2023/06/12 06:45:07;;;;;;;9.30;5.15;;;16.00;99.90;;;;;;5061503;28;20044;-62
2023/06/12 06:47:35;;;;;;;8.77;5.70;;;16.10;99.90;;;;;;5054163;28;20094;-61
2023/06/12 06:50:03;;;;;;;9.02;4.70;;;16.30;99.90;;;;;;5062071;28;20044;-62
2023/06/12 06:52:30;;;;;;;;;;;16.50;99.90;;;;;;5056108;28;20058;-62
2023/06/12 06:54:58;;;;;;;9.18;5.75;;;16.60;99.90;;;;;;5078022;28;19928;-62
2023/06/12 06:57:26;;;;;;;6.85;5.40;;;16.70;99.90;;;;;;5053401;28;20047;-62
2023/06/12 06:59:55;;;;;;;7.40;5.82;;;16.80;99.90;;;;;;5059163;28;20045;-62
2023/06/12 07:02:23;;;;;;;5.70;4.82;;;17.00;99.90;;;;;;5059748;28;20075;-62
2023/06/12 07:04:52;;;;;;;10.85;5.38;;;17.20;99.90;;;;;;5072816;28;20044;-61
2023/06/12 07:07:19;;;;;;;8.07;6.35;;;17.30;99.90;;;;;;5060868;28;20056;-61
2023/06/12 07:09:46;;;;;;;7.53;5.70;;;17.50;99.90;;;;;;5061979;28;20041;-61
2023/06/12 07:12:13;;;;;;;9.07;5.15;;;17.60;99.90;;;;;;5052980;28;20408;-61
2023/06/12 07:14:41;;;;;;;5.85;4.85;;;17.70;99.90;;;;;;5060708;28;20045;-62
2023/06/12 07:17:08;;;;;;;7.25;5.30;;;17.70;99.90;;;;;;5059089;28;20097;-61
2023/06/12 07:19:35;;;;;;;7.47;5.88;;;17.80;99.90;;;;;;5085462;28;20131;-61
2023/06/12 07:22:02;;;;;;;6.13;5.38;;;17.80;99.90;;;;;;5064799;28;20123;-62
2023/06/12 07:24:29;;;;;;;9.13;5.72;;;17.90;99.90;;;;;;5075403;28;20053;-61
2023/06/12 07:26:56;;;;;;;6.68;5.68;;;18.00;99.90;;;;;;5059017;28;20093;-61
2023/06/12 07:29:23;;;;;;;8.98;5.68;;;18.00;99.90;;;;;;5082805;28;20041;-62
2023/06/12 07:31:51;;;;;;;7.65;5.78;;;18.10;99.90;;;;;;5056728;28;20468;-62
2023/06/12 07:34:18;;;;;;;13.25;6.88;;;18.20;99.90;;;;;;5058088;28;20062;-61
2023/06/12 07:36:45;;;;;;;;;;;18.20;99.90;;;;;;5076111;28;20077;-61
2023/06/12 07:39:13;;;;;;;9.50;6.35;;;18.30;99.90;;;;;;5073319;28;19920;-61
2023/06/12 07:41:42;;;;;;;7.03;5.82;;;18.40;99.90;;;;;;5065208;28;20040;-62
2023/06/12 07:44:10;;;;;;;7.07;5.43;;;18.40;99.90;;;;;;5089003;28;20040;-61
2023/06/12 07:46:40;;;;;;;9.75;5.93;;;18.50;99.90;;;;;;5074565;28;20045;-62
2023/06/12 07:49:08;;;;;;;8.43;5.90;;;18.60;99.90;;;;;;5056797;28;20045;-62
2023/06/12 07:51:36;;;;;;;12.50;7.80;;;18.60;99.90;;;;;;5065773;28;20048;-62
2023/06/12 07:54:03;;;;;;;13.93;7.53;;;18.60;99.90;;;;;;5064614;28;20041;-62
2023/06/12 07:56:32;;;;;;;16.40;7.55;;;18.70;99.90;;;;;;5056514;28;20406;-61
2023/06/12 07:59:10;;;;;;;12.35;6.60;;;18.90;99.90;;;;;;5055777;28;20048;-62
2023/06/12 08:01:44;;;;;;;13.48;7.30;;;19.00;99.90;;;;;;5069099;28;20390;-62
2023/06/12 08:04:15;;;;;;;8.20;6.20;;;19.00;99.90;;;;;;5056351;28;20048;-60
2023/06/12 08:06:44;;;;;;;9.93;6.38;;;18.90;99.90;;;;;;5063917;28;20040;-62
2023/06/12 08:09:12;;;;;;;10.43;6.30;;;18.90;99.90;;;;;;5062827;28;20068;-62
2023/06/12 08:11:40;;;;;;;13.15;7.03;;;19.10;99.90;;;;;;5059231;28;20469;-62
2023/06/12 08:14:08;;;;;;;12.07;6.32;;;19.20;99.90;;;;;;5073687;28;20493;-62
2023/06/12 08:16:36;;;;;;;18.73;7.03;;;19.30;99.90;;;;;;5056010;28;20072;-62
2023/06/12 08:19:03;;;;;;;7.43;6.30;;;19.40;99.90;;;;;;5082009;28;20041;-62
2023/06/12 08:21:33;;;;;;;12.65;6.30;;;19.50;99.90;;;;;;5056364;28;20040;-63
2023/06/12 08:24:00;;;;;;;8.77;6.90;;;19.60;99.90;;;;;;5063838;28;22529;-62
2023/06/12 08:26:28;;;;;;;6.93;5.80;;;19.70;99.90;;;;;;5060925;28;20048;-62
2023/06/12 08:28:57;;;;;;;10.32;6.90;;;19.80;99.90;;;;;;5072099;28;20506;-62
2023/06/12 08:31:28;;;;;;;10.10;6.25;;;19.80;99.90;;;;;;5059671;28;20044;-61
2023/06/12 08:33:56;;;;;;;9.23;5.72;;;19.70;99.90;;;;;;5055403;28;20731;-62
2023/06/12 08:36:23;;;;;;;10.98;6.78;;;19.80;99.90;;;;;;5069407;28;20106;-61
2023/06/12 08:38:51;;;;;;;13.52;7.05;;;19.80;99.90;;;;;;5076125;28;20195;-61
2023/06/12 08:41:21;;;;;;;10.27;6.82;;;20.00;99.90;;;;;;5059190;28;20075;-61
2023/06/12 08:43:50;;;;;;;7.95;6.20;;;20.20;99.90;;;;;;5069348;28;20071;-62
2023/06/12 08:46:21;;;;;;;9.55;6.20;;;20.20;99.90;;;;;;5055376;28;20045;-62
2023/06/12 08:48:49;;;;;;;11.70;6.10;;;20.30;99.90;;;;;;5076977;28;20430;-61
2023/06/12 08:51:16;;;;;;;9.43;6.43;;;20.30;99.90;;;;;;5073593;28;20052;-61
2023/06/12 08:53:44;;;;;;;;;;;20.30;99.90;;;;;;5073072;28;20047;-61
2023/06/12 08:56:12;;;;;;;11.30;6.27;;;20.40;99.90;;;;;;5073437;28;19920;-61
2023/06/12 08:58:38;;;;;;;11.10;6.15;;;20.50;99.90;;;;;;5080805;28;20043;-61
2023/06/12 09:01:08;;;;;;;6.85;6.13;;;20.50;99.90;;;;;;5077384;28;20037;-61
2023/06/12 09:03:37;;;;;;;7.45;6.57;;;20.50;99.90;;;;;;5073084;28;20430;-61
2023/06/12 09:06:06;;;;;;;7.80;6.63;;;20.50;99.90;;;;;;5054871;28;20040;-61
2023/06/12 09:08:34;;;;;;;10.70;6.22;;;20.60;99.90;;;;;;5076354;28;20556;-61
2023/06/12 09:11:01;;;;;;;8.27;6.80;;;20.60;99.90;;;;;;5082100;28;20051;-62
2023/06/12 09:13:40;;;;;;;7.75;6.47;;;20.80;99.90;;;;;;5073663;28;20082;-63
2023/06/12 09:16:14;;;;;;;9.55;6.32;;;20.80;99.90;;;;;;5080770;28;20083;-61
2023/06/12 09:18:53;;;;;;;10.00;6.97;;;20.80;99.90;;;;;;5075610;28;20040;-62
2023/06/12 09:21:24;;;;;;;10.55;7.03;;;20.80;99.90;;;;;;5077722;28;20113;-61
2023/06/12 09:23:52;;;;;;;8.77;6.88;;;20.90;99.90;;;;;;5082235;28;20037;-62
2023/06/12 09:26:21;;;;;;;9.43;6.90;;;21.10;99.90;;;;;;5083858;28;20040;-61
2023/06/12 09:28:54;;;;;;;12.77;7.07;;;21.20;99.90;;;;;;5090017;28;20044;-61
2023/06/12 09:31:21;;;;;;;9.50;7.43;;;21.30;99.90;;;;;;5079950;28;20478;-61
2023/06/12 09:33:52;;;;;;;8.32;6.88;;;21.40;99.90;;;;;;5072179;28;20045;-62
2023/06/12 09:36:20;;;;;;;11.18;6.93;;;21.40;99.90;;;;;;5071633;28;20090;-62
2023/06/12 09:38:49;;;;;;;9.82;7.43;;;21.40;99.90;;;;;;5077760;28;20123;-62
2023/06/12 09:41:21;;;;;;;9.73;6.63;;;21.40;99.90;;;;;;5079221;28;20131;-62
2023/06/12 09:43:51;;;;;;;9.20;6.15;;;21.40;99.90;;;;;;5071316;28;20039;-62
2023/06/12 09:46:24;;;;;;;11.80;6.55;;;21.50;99.90;;;;;;5072173;28;20045;-61
2023/06/12 09:48:55;;;;;;;9.90;6.72;;;21.60;99.90;;;;;;5080129;28;20097;-62
2023/06/12 09:51:23;;;;;;;9.35;6.57;;;21.50;99.90;;;;;;5072291;28;20520;-63
2023/06/12 09:53:52;;;;;;;19.23;6.80;;;21.60;99.90;;;;;;5071520;28;20041;-61
2023/06/12 09:56:19;;;;;;;8.40;7.15;;;21.70;99.90;;;;;;5072115;28;20040;-61
2023/06/12 09:58:48;;;;;;;9.70;7.07;;;21.70;99.90;;;;;;5079310;28;20071;-62
2023/06/12 10:01:17;;;;;;;10.95;5.85;;;21.80;99.90;;;;;;5071679;28;20052;-61
2023/06/12 10:03:50;;;;;;;8.70;5.95;;;21.80;99.90;;;;;;5071171;28;20151;-62
2023/06/12 10:06:18;;;;;;;7.22;5.75;;;22.00;99.90;;;;;;5072235;28;20489;-62
2023/06/12 10:08:48;;;;;;;14.43;6.53;;;22.10;99.90;;;;;;5091351;28;20501;-62
2023/06/12 10:11:15;;;;;;;10.57;6.55;;;22.30;99.90;;;;;;5075180;28;20068;-61
2023/06/12 10:13:43;;;;;;;10.52;6.28;;;22.40;99.90;;;;;;5071862;28;20063;-62
2023/06/12 10:16:10;;;;;;;10.57;6.93;;;22.30;99.90;;;;;;5071270;28;20123;-62
2023/06/12 10:18:38;;;;;;;12.13;6.65;;;22.40;99.90;;;;;;5076815;28;20048;-61
2023/06/12 10:21:05;;;;;;;9.23;6.07;;;22.30;99.90;;;;;;5075202;28;20381;-62
2023/06/12 10:23:33;;;;;;;9.70;6.60;;;22.40;99.90;;;;;;5072136;28;20416;-62
2023/06/12 10:26:01;;;;;;;9.10;6.32;;;22.40;99.90;;;;;;5070835;28;20044;-62
2023/06/12 10:28:28;;;;;;;7.22;6.10;;;22.40;99.90;;;;;;5071973;28;20044;-62
2023/06/12 10:31:11;;;;;;;9.40;6.38;;;22.30;99.90;;;;;;5058956;28;20512;-62
2023/06/12 10:34:01;;;;;;;8.57;6.30;;;22.40;99.90;;;;;;5071759;28;20454;-62
2023/06/12 10:36:42;;;;;;;7.18;6.00;;;22.70;99.90;;;;;;5071466;28;20040;-62
2023/06/12 10:39:23;;;;;;;8.45;5.60;;;22.70;99.90;;;;;;5079662;28;20048;-62
2023/06/12 10:41:52;;;;;;;9.05;6.38;;;22.80;99.90;;;;;;5071424;28;20040;-62
2023/06/12 10:44:38;;;;;;;8.93;6.03;;;22.90;99.90;;;;;;5071174;28;20037;-62
2023/06/12 10:47:17;;;;;;;7.40;6.00;;;22.90;99.90;;;;;;5073213;28;20154;-62
2023/06/12 10:50:04;;;;;;;10.55;7.43;;;23.20;99.90;;;;;;5075373;28;20822;-62
2023/06/12 10:52:31;;;;;;;7.97;6.03;;;23.30;99.90;;;;;;5076869;28;20056;-62
2023/06/12 10:55:22;;;;;;;7.20;6.13;;;23.40;99.90;;;;;;5069910;28;20505;-62
2023/06/12 10:57:54;;;;;;;11.13;6.00;;;23.50;99.90;;;;;;5071002;28;20040;-62
2023/06/12 11:00:31;;;;;;;6.22;5.63;;;23.60;99.90;;;;;;5076597;28;20045;-62
2023/06/12 11:03:03;;;;;;;10.30;5.63;;;23.50;99.90;;;;;;5075458;28;20040;-61
2023/06/12 11:05:31;;;;;;;8.38;5.65;;;23.60;99.90;;;;;;5075192;28;20087;-62
2023/06/12 11:07:59;;;;;;;11.75;6.25;;;23.70;99.90;;;;;;5075441;28;20052;-61
2023/06/12 11:10:27;;;;;;;9.57;5.68;;;23.70;99.90;;;;;;5081294;28;20326;-61
2023/06/12 11:12:54;;;;;;;7.72;6.00;;;23.70;99.90;;;;;;5086404;28;20040;-62
2023/06/12 11:15:22;;;;;;;7.78;5.28;;;23.60;99.90;;;;;;5075122;28;20098;-61
2023/06/12 11:17:49;;;;;;;10.35;5.45;;;23.60;99.90;;;;;;5075287;28;20044;-62
2023/06/12 11:20:19;;;;;;;7.55;5.47;;;23.50;99.90;;;;;;5081551;28;20047;-62
2023/06/12 11:22:49;;;;;;;6.57;5.25;;;23.50;99.90;;;;;;5082534;28;20044;-62
2023/06/12 11:25:17;;;;;;;6.70;4.97;;;23.60;99.90;;;;;;5091605;28;20446;-62
2023/06/12 11:27:44;;;;;;;9.43;5.28;;;23.70;99.90;;;;;;5075029;28;20083;-61
2023/06/12 11:30:13;;;;;;;8.50;5.53;;;23.80;99.90;;;;;;5079822;28;20425;-61
2023/06/12 11:32:57;;;;;;;8.75;5.10;;;23.80;99.90;;;;;;5074816;28;20413;-62
2023/06/12 11:35:24;;;;;;;6.07;5.28;;;24.10;99.90;;;;;;5074937;28;20121;-61
2023/06/12 11:37:52;;;;;;;6.57;4.70;;;24.00;99.90;;;;;;5081453;28;20044;-62
2023/06/12 11:40:26;;;;;;;8.40;4.97;;;24.00;99.50;;;;;;5085735;28;20374;-61
2023/06/12 11:42:54;;;;;;;7.30;4.63;;;24.10;99.90;;;;;;5084361;28;20097;-61
2023/06/12 11:45:20;;;;;;;7.95;5.28;;;24.20;99.90;;;;;;5078864;28;20504;-62
2023/06/12 11:47:48;;;;;;;5.53;4.45;;;24.20;99.40;;;;;;5086200;28;20045;-61
2023/06/12 11:50:19;;;;;;;8.27;5.30;;;24.10;97.90;;;;;;5074548;28;20044;-60
2023/06/12 11:52:47;;;;;;;6.43;5.18;;;24.10;99.20;;;;;;5083878;28;20052;-61
2023/06/12 11:55:16;;;;;;;6.68;4.63;;;24.00;99.90;;;;;;5074830;28;20524;-61
2023/06/12 11:57:50;;;;;;;6.13;4.68;;;23.90;99.40;;;;;;5076833;28;20047;-61
2023/06/12 12:00:21;;;;;;;6.10;4.90;;;24.00;99.90;;;;;;5074072;28;20047;-61
2023/06/12 12:02:51;;;;;;;6.40;5.03;;;24.10;99.90;;;;;;5073474;28;20389;-61
2023/06/12 12:05:20;;;;;;;8.18;4.57;;;24.00;98.50;;;;;;5074565;28;20102;-60
2023/06/12 12:07:59;;;;;;;5.70;4.40;;;24.10;98.40;;;;;;5080467;28;20040;-61
2023/06/12 12:10:28;;;;;;;8.27;4.60;;;24.10;99.00;;;;;;5074048;28;20074;-61
2023/06/12 12:13:00;;;;;;;5.30;4.80;;;24.10;98.00;;;;;;5073255;28;20063;-60
2023/06/12 12:15:29;;;;;;;5.70;4.63;;;24.30;99.90;;;;;;5074323;28;20066;-61
2023/06/12 12:17:56;;;;;;;5.78;4.20;;;24.60;95.20;;;;;;5080045;28;20066;-60
2023/06/12 12:20:25;;;;;;;5.93;4.45;;;24.70;97.40;;;;;;5085800;28;20048;-62
2023/06/12 12:23:00;;;;;;;4.65;4.10;;;24.60;96.70;;;;;;5073649;28;20046;-61
2023/06/12 12:25:29;;;;;;;7.40;4.97;;;24.60;97.00;;;;;;5072940;28;20149;-61
2023/06/12 12:27:59;;;;;;;11.00;4.63;;;24.60;97.50;;;;;;5073698;28;20143;-62
2023/06/12 12:30:27;;;;;;;5.55;4.50;;;24.50;97.50;;;;;;5083784;28;20045;-61
2023/06/12 12:32:54;;;;;;;;;;;24.60;97.60;;;;;;5056081;28;20474;-61
2023/06/12 12:35:22;;;;;;;5.05;4.55;;;25.00;97.20;;;;;;5073762;28;19920;-62
2023/06/12 12:37:51;;;;;;;6.72;4.10;;;25.10;96.20;;;;;;5073746;28;20045;-61
2023/06/12 12:40:18;;;;;;;6.75;4.22;;;25.00;96.00;;;;;;5077647;28;20036;-62
2023/06/12 12:42:46;;;;;;;5.72;4.25;;;24.90;95.70;;;;;;5073442;28;20036;-60
2023/06/12 12:45:15;;;;;;;5.45;4.00;;;24.60;95.50;;;;;;5073257;28;20040;-61
2023/06/12 12:47:49;;;;;;;5.05;4.07;;;24.60;95.20;;;;;;5077995;28;20504;-61
2023/06/12 12:50:18;;;;;;;6.63;4.13;;;24.90;96.20;;;;;;5077467;28;20527;-62
2023/06/12 12:52:50;;;;;;;9.00;4.60;;;24.90;95.70;;;;;;5073493;28;20494;-62
2023/06/12 12:55:18;;;;;;;8.50;4.55;;;24.70;95.10;;;;;;5073109;28;20115;-61
2023/06/12 12:57:45;;;;;;;4.40;3.95;;;24.60;94.90;;;;;;5073294;28;20119;-62